createdAt,value
2022-09-27T00:00:32.903Z,98565.31
2022-09-27T00:01:35.115Z,98566.97
2022-09-27T00:02:37.380Z,98565.84
2022-09-27T00:03:39.846Z,98563.09
2022-09-27T00:04:42.006Z,98562.25
2022-09-27T00:05:44.149Z,98566.66
2022-09-27T00:06:49.144Z,98567.47
2022-09-27T00:07:51.661Z,98555.59
2022-09-27T00:08:54.286Z,98559.16
2022-09-27T00:09:56.499Z,98555.28
2022-09-27T00:11:00.957Z,98556.41
2022-09-27T00:12:03.527Z,98548.13
2022-09-27T00:13:05.721Z,98544.53
2022-09-27T00:14:08.767Z,98545.06
2022-09-27T00:15:11.662Z,98535.94
2022-09-27T00:16:13.909Z,98530.41
2022-09-27T00:17:16.118Z,98535.66
2022-09-27T00:18:27.436Z,98535.66
2022-09-27T00:19:29.609Z,98527.34
2022-09-27T00:20:31.751Z,98535.34
2022-09-27T00:21:34.213Z,98533.09
2022-09-27T00:22:36.846Z,98528.38
2022-09-27T00:23:40.037Z,98531.66
2022-09-27T00:24:42.171Z,98531.66
2022-09-27T00:25:55.293Z,98528.25
2022-09-27T00:26:57.487Z,98518.34
2022-09-27T00:27:59.770Z,98524.69
2022-09-27T00:29:01.972Z,98525.19
2022-09-27T00:30:04.474Z,98522.91
2022-09-27T00:31:29.845Z,98515.16
2022-09-27T00:32:32.261Z,98520.34
2022-09-27T00:33:34.425Z,98523.63
2022-09-27T00:34:36.942Z,98528.00
2022-09-27T00:35:40.646Z,98511.13
2022-09-27T00:36:42.794Z,98518.00
2022-09-27T00:37:48.501Z,98516.53
2022-09-27T00:38:50.788Z,98513.47
2022-09-27T00:39:53.111Z,98515.06
2022-09-27T00:41:01.189Z,98509.25
2022-09-27T00:42:03.390Z,98510.56
2022-09-27T00:43:16.945Z,98508.28
2022-09-27T00:44:24.912Z,98504.91
2022-09-27T00:45:27.136Z,98503.75
2022-09-27T00:46:48.000Z,98503.16
2022-09-27T00:47:56.635Z,98500.88
2022-09-27T00:49:08.341Z,98493.91
2022-09-27T00:50:29.817Z,98486.91
2022-09-27T00:51:34.954Z,98491.00
2022-09-27T00:53:01.679Z,98488.25
2022-09-27T00:54:05.742Z,98478.16
2022-09-27T00:55:20.770Z,98485.34
2022-09-27T00:56:30.569Z,98477.56
2022-09-27T00:57:35.759Z,98477.22
2022-09-27T00:58:52.977Z,98477.75
2022-09-27T01:00:02.158Z,98476.28
2022-09-27T01:01:10.710Z,98472.38
2022-09-27T01:02:13.385Z,98470.13
2022-09-27T01:03:25.653Z,98470.91
2022-09-27T01:04:30.847Z,98470.31
2022-09-27T01:05:33.033Z,98467.53
2022-09-27T01:06:35.711Z,98463.13
2022-09-27T01:07:38.925Z,98461.69
2022-09-27T01:08:41.270Z,98456.16
2022-09-27T01:09:43.542Z,98466.09
2022-09-27T01:10:59.976Z,98463.31
2022-09-27T01:12:25.808Z,98461.88
2022-09-27T01:13:38.587Z,98450.47
2022-09-27T01:15:26.258Z,98444.63
2022-09-27T01:16:37.348Z,98459.78
2022-09-27T01:18:03.996Z,98451.16
2022-09-27T01:19:29.949Z,98450.00
2022-09-27T01:21:01.627Z,98441.72
2022-09-27T01:22:13.444Z,98450.53
2022-09-27T01:23:36.489Z,98443.03
2022-09-27T01:24:51.956Z,98445.47
2022-09-27T01:26:21.872Z,98444.66
2022-09-27T01:27:39.001Z,98440.75
2022-09-27T01:29:18.599Z,98439.59
2022-09-27T01:30:22.414Z,98443.22
2022-09-27T01:31:34.232Z,98435.72
2022-09-27T01:33:17.334Z,98437.16
2022-09-27T01:34:43.839Z,98440.13
2022-09-27T01:36:00.914Z,98428.25
2022-09-27T01:37:25.425Z,98431.81
2022-09-27T01:38:37.689Z,98429.03
2022-09-27T01:39:57.955Z,98428.72
2022-09-27T01:41:23.855Z,98424.00
2022-09-27T01:43:00.584Z,98424.00
2022-09-27T01:44:27.637Z,98415.72
2022-09-27T01:45:46.023Z,98420.41
2022-09-27T01:46:58.994Z,98415.72
2022-09-27T01:48:26.234Z,98412.94
2022-09-27T01:49:59.184Z,98415.72
2022-09-27T01:51:17.305Z,98410.97
2022-09-27T01:52:27.752Z,98410.97
2022-09-27T01:53:41.175Z,98417.31
2022-09-27T01:55:05.706Z,98414.56
2022-09-27T01:56:39.477Z,98407.41
2022-09-27T01:57:57.872Z,98410.97
2022-09-27T01:59:15.606Z,98409.00
2022-09-27T02:00:24.481Z,98409.00
2022-09-27T02:01:31.639Z,98404.63
2022-09-27T02:02:40.955Z,98404.31
2022-09-27T02:04:15.708Z,98405.09
2022-09-27T02:05:45.619Z,98401.88
2022-09-27T02:07:15.615Z,98400.22
2022-09-27T02:08:30.477Z,98397.13
2022-09-27T02:09:40.805Z,98400.69
2022-09-27T02:10:56.607Z,98395.50
2022-09-27T02:12:06.257Z,98402.66
2022-09-27T02:13:23.214Z,98388.03
2022-09-27T02:14:54.813Z,98395.50
2022-09-27T02:16:14.990Z,98393.56
2022-09-27T02:17:31.128Z,98394.69
2022-09-27T02:18:46.440Z,98389.97
2022-09-27T02:19:54.705Z,98389.63
2022-09-27T02:21:07.888Z,98392.41
2022-09-27T02:22:28.587Z,98386.06
2022-09-27T02:23:45.223Z,98385.72
2022-09-27T02:24:57.971Z,98376.63
2022-09-27T02:26:16.931Z,98376.28
2022-09-27T02:27:30.266Z,98371.09
2022-09-27T02:28:48.391Z,98369.94
2022-09-27T02:30:06.458Z,98368.78
2022-09-27T02:31:10.288Z,98366.84
2022-09-27T02:32:13.460Z,98354.94
2022-09-27T02:33:16.109Z,98363.25
2022-09-27T02:34:23.536Z,98365.69
2022-09-27T02:35:31.584Z,98364.09
2022-09-27T02:36:33.820Z,98358.56
2022-09-27T02:37:35.990Z,98361.31
2022-09-27T02:38:38.205Z,98359.34
2022-09-27T02:39:40.737Z,98356.59
2022-09-27T02:40:47.453Z,98353.81
2022-09-27T02:41:50.242Z,98353.81
2022-09-27T02:42:53.517Z,98350.25
2022-09-27T02:44:00.495Z,98355.28
2022-09-27T02:45:06.399Z,98354.16
2022-09-27T02:46:28.967Z,98351.38
2022-09-27T02:48:08.697Z,98353.31
2022-09-27T02:49:48.146Z,98347.78
2022-09-27T02:51:30.914Z,98346.97
2022-09-27T02:52:53.348Z,98348.94
2022-09-27T02:54:22.022Z,98342.56
2022-09-27T02:56:25.839Z,98339.00
2022-09-27T02:58:12.515Z,98338.19
2022-09-27T02:59:50.167Z,98329.88
2022-09-27T03:01:02.762Z,98340.63
2022-09-27T03:03:03.024Z,98345.66
2022-09-27T03:04:31.377Z,98335.56
2022-09-27T03:05:49.563Z,98336.03
2022-09-27T03:06:56.952Z,98343.53
2022-09-27T03:07:59.343Z,98338.81
2022-09-27T03:09:01.511Z,98328.88
2022-09-27T03:10:05.692Z,98322.53
2022-09-27T03:11:08.112Z,98325.63
2022-09-27T03:12:10.889Z,98328.41
2022-09-27T03:13:13.648Z,98322.84
2022-09-27T03:14:17.481Z,98330.66
2022-09-27T03:15:35.600Z,98331.78
2022-09-27T03:16:40.076Z,98325.13
2022-09-27T03:18:17.391Z,98320.72
2022-09-27T03:19:22.093Z,98323.47
2022-09-27T03:20:47.079Z,98318.78
2022-09-27T03:21:54.788Z,98318.78
2022-09-27T03:22:57.026Z,98322.34
2022-09-27T03:23:59.171Z,98319.91
2022-09-27T03:25:04.369Z,98318.28
2022-09-27T03:26:10.745Z,98324.13
2022-09-27T03:27:15.498Z,98324.47
2022-09-27T03:28:18.206Z,98322.81
2022-09-27T03:29:20.722Z,98321.19
2022-09-27T03:30:27.801Z,98322.31
2022-09-27T03:31:30.647Z,98316.78
2022-09-27T03:32:51.717Z,98315.19
2022-09-27T03:34:12.105Z,98318.25
2022-09-27T03:35:14.523Z,98315.47
2022-09-27T03:36:16.660Z,98319.41
2022-09-27T03:37:22.154Z,98309.13
2022-09-27T03:38:24.389Z,98313.03
2022-09-27T03:39:27.421Z,98314.19
2022-09-27T03:40:29.724Z,98308.97
2022-09-27T03:41:32.231Z,98313.69
2022-09-27T03:42:34.432Z,98315.66
2022-09-27T03:43:36.637Z,98319.53
2022-09-27T03:44:39.854Z,98309.59
2022-09-27T03:45:45.427Z,98306.84
2022-09-27T03:46:47.642Z,98305.19
2022-09-27T03:47:49.865Z,98300.00
2022-09-27T03:48:52.219Z,98302.75
2022-09-27T03:49:54.403Z,98297.56
2022-09-27T03:50:57.372Z,98297.56
2022-09-27T03:51:59.841Z,98295.91
2022-09-27T03:53:02.022Z,98285.97
2022-09-27T03:54:04.336Z,98292.63
2022-09-27T03:55:07.172Z,98290.72
2022-09-27T03:56:10.322Z,98278.34
2022-09-27T03:57:12.844Z,98289.41
2022-09-27T03:58:15.662Z,98285.00
2022-09-27T03:59:18.074Z,98284.19
2022-09-27T04:00:41.287Z,98287.25
2022-09-27T04:01:44.689Z,98288.41
2022-09-27T04:03:07.992Z,98270.19
2022-09-27T04:04:25.074Z,98278.81
2022-09-27T04:05:29.057Z,98264.47
2022-09-27T04:06:41.677Z,98272.75
2022-09-27T04:07:48.391Z,98273.09
2022-09-27T04:08:53.071Z,98269.81
2022-09-27T04:09:57.346Z,98267.03
2022-09-27T04:10:59.632Z,98270.13
2022-09-27T04:12:02.446Z,98272.09
2022-09-27T04:13:05.969Z,98267.69
2022-09-27T04:14:16.270Z,98271.59
2022-09-27T04:15:39.603Z,98268.34
2022-09-27T04:17:19.283Z,98268.66
2022-09-27T04:18:44.615Z,98271.75
2022-09-27T04:20:12.847Z,98271.25
2022-09-27T04:21:18.333Z,98266.84
2022-09-27T04:22:25.879Z,98262.44
2022-09-27T04:23:30.102Z,98263.59
2022-09-27T04:24:33.101Z,98273.00
2022-09-27T04:25:58.768Z,98267.78
2022-09-27T04:27:23.796Z,98270.88
2022-09-27T04:28:28.112Z,98272.03
2022-09-27T04:29:30.306Z,98273.47
2022-09-27T04:30:37.789Z,98271.53
2022-09-27T04:31:49.078Z,98266.34
2022-09-27T04:33:06.685Z,98270.22
2022-09-27T04:34:53.692Z,98271.34
2022-09-27T04:36:17.675Z,98260.63
2022-09-27T04:37:36.626Z,98266.16
2022-09-27T04:38:38.940Z,98264.50
2022-09-27T04:39:42.757Z,98262.88
2022-09-27T04:40:45.662Z,98261.22
2022-09-27T04:41:47.971Z,98260.75
2022-09-27T04:42:51.249Z,98260.75
2022-09-27T04:43:58.998Z,98258.00
2022-09-27T04:45:02.554Z,98264.66
2022-09-27T04:46:05.056Z,98261.88
2022-09-27T04:48:29.904Z,98259.44
2022-09-27T04:49:32.440Z,98258.59
2022-09-27T04:50:36.495Z,98265.28
2022-09-27T04:51:39.535Z,98265.28
2022-09-27T04:52:41.866Z,98260.56
2022-09-27T04:53:45.041Z,98258.94
2022-09-27T04:54:47.901Z,98258.94
2022-09-27T04:55:52.426Z,98261.69
2022-09-27T04:56:54.580Z,98255.69
2022-09-27T04:57:56.845Z,98269.19
2022-09-27T04:58:59.413Z,98259.25
2022-09-27T05:00:01.949Z,98268.34
2022-09-27T05:01:05.472Z,98257.63
2022-09-27T05:02:29.585Z,98261.22
2022-09-27T05:03:51.278Z,98263.16
2022-09-27T05:04:59.379Z,98263.47
2022-09-27T05:06:06.984Z,98260.72
2022-09-27T05:07:09.401Z,98253.53
2022-09-27T05:08:18.963Z,98257.13
2022-09-27T05:09:48.645Z,98258.25
2022-09-27T05:10:51.234Z,98248.34
2022-09-27T05:11:53.414Z,98259.38
2022-09-27T05:13:23.270Z,98258.59
2022-09-27T05:15:50.433Z,98260.84
2022-09-27T05:17:13.897Z,98256.94
2022-09-27T05:18:19.342Z,98265.25
2022-09-27T05:19:41.558Z,98264.44
2022-09-27T05:21:02.361Z,98260.03
2022-09-27T05:22:24.499Z,98258.06
2022-09-27T05:23:27.391Z,98257.28
2022-09-27T05:24:30.481Z,98260.03
2022-09-27T05:25:33.151Z,98260.34
2022-09-27T05:26:35.321Z,98263.09
2022-09-27T05:27:37.579Z,98259.50
2022-09-27T05:28:43.162Z,98260.34
2022-09-27T05:29:45.991Z,98262.25
2022-09-27T05:30:55.166Z,98256.72
2022-09-27T05:31:57.373Z,98253.97
2022-09-27T05:32:59.542Z,98257.84
2022-09-27T05:34:01.663Z,98246.81
2022-09-27T05:35:14.071Z,98259.50
2022-09-27T05:36:16.691Z,98253.16
2022-09-27T05:37:19.400Z,98251.19
2022-09-27T05:38:23.557Z,98254.81
2022-09-27T05:39:28.013Z,98259.50
2022-09-27T05:40:41.147Z,98254.81
2022-09-27T05:41:46.655Z,98253.69
2022-09-27T05:42:50.519Z,98252.84
2022-09-27T05:43:52.800Z,98250.91
2022-09-27T05:44:54.937Z,98257.28
2022-09-27T05:45:57.182Z,98258.06
2022-09-27T05:47:07.273Z,98253.69
2022-09-27T05:48:10.685Z,98250.06
2022-09-27T05:49:20.826Z,98256.44
2022-09-27T05:50:24.888Z,98253.38
2022-09-27T05:51:27.102Z,98251.75
2022-09-27T05:52:29.751Z,98257.28
2022-09-27T05:53:32.534Z,98249.78
2022-09-27T05:54:35.901Z,98258.91
2022-09-27T05:55:38.029Z,98250.28
2022-09-27T05:56:41.005Z,98249.78
2022-09-27T05:58:00.072Z,98255.00
2022-09-27T05:59:14.820Z,98255.00
2022-09-27T06:00:52.639Z,98256.63
2022-09-27T06:02:13.283Z,98256.94
2022-09-27T06:03:35.039Z,98255.50
2022-09-27T06:05:15.462Z,98254.69
2022-09-27T06:06:36.884Z,98259.91
2022-09-27T06:07:40.771Z,98259.06
2022-09-27T06:08:53.488Z,98255.19
2022-09-27T06:09:59.078Z,98263.47
2022-09-27T06:11:06.296Z,98260.72
2022-09-27T06:12:11.930Z,98254.06
2022-09-27T06:13:16.001Z,98263.16
2022-09-27T06:14:18.847Z,98261.22
2022-09-27T06:15:31.994Z,98252.59
2022-09-27T06:16:34.323Z,98253.41
2022-09-27T06:17:37.304Z,98259.75
2022-09-27T06:18:47.047Z,98255.84
2022-09-27T06:19:49.638Z,98256.69
2022-09-27T06:20:52.249Z,98256.69
2022-09-27T06:21:54.397Z,98259.13
2022-09-27T06:23:04.106Z,98254.09
2022-09-27T06:24:07.327Z,98252.13
2022-09-27T06:25:11.258Z,98254.91
2022-09-27T06:26:27.455Z,98254.25
2022-09-27T06:27:50.226Z,98262.53
2022-09-27T06:29:00.342Z,98258.66
2022-09-27T06:30:02.931Z,98252.81
2022-09-27T06:31:18.102Z,98256.41
2022-09-27T06:32:27.322Z,98256.88
2022-09-27T06:33:50.199Z,98252.97
2022-09-27T06:34:53.098Z,98256.59
2022-09-27T06:35:55.714Z,98259.81
2022-09-27T06:36:58.404Z,98252.34
2022-09-27T06:38:10.295Z,98257.56
2022-09-27T06:39:16.686Z,98257.56
2022-09-27T06:40:34.158Z,98253.34
2022-09-27T06:41:57.609Z,98260.50
2022-09-27T06:43:09.749Z,98264.56
2022-09-27T06:44:30.669Z,98260.69
2022-09-27T06:46:11.535Z,98255.66
2022-09-27T06:47:39.997Z,98247.81
2022-09-27T06:49:22.295Z,98251.91
2022-09-27T06:50:24.609Z,98251.59
2022-09-27T06:51:26.938Z,98245.75
2022-09-27T06:52:29.103Z,98242.16
2022-09-27T06:53:31.701Z,98244.63
2022-09-27T06:54:34.001Z,98242.34
2022-09-27T06:55:36.459Z,98242.34
2022-09-27T06:56:38.660Z,98243.63
2022-09-27T06:57:59.417Z,98239.75
2022-09-27T06:59:19.908Z,98247.72
2022-09-27T07:00:43.084Z,98249.03
2022-09-27T07:02:03.640Z,98260.59
2022-09-27T07:03:40.215Z,98254.75
2022-09-27T07:05:07.300Z,98262.06
2022-09-27T07:06:30.419Z,98271.19
2022-09-27T07:07:44.471Z,98271.66
2022-09-27T07:08:51.408Z,98274.94
2022-09-27T07:09:53.856Z,98277.38
2022-09-27T07:11:01.374Z,98277.06
2022-09-27T07:12:03.624Z,98275.91
2022-09-27T07:13:09.716Z,98275.59
2022-09-27T07:14:12.388Z,98281.63
2022-09-27T07:15:15.556Z,98271.03
2022-09-27T07:16:19.001Z,98277.41
2022-09-27T07:17:21.191Z,98271.53
2022-09-27T07:18:25.332Z,98275.63
2022-09-27T07:19:28.529Z,98273.34
2022-09-27T07:20:32.511Z,98276.13
2022-09-27T07:21:34.751Z,98271.91
2022-09-27T07:22:45.917Z,98268.81
2022-09-27T07:23:49.300Z,98269.28
2022-09-27T07:24:51.545Z,98269.78
2022-09-27T07:25:53.836Z,98269.78
2022-09-27T07:26:56.088Z,98271.41
2022-09-27T07:28:03.582Z,98275.50
2022-09-27T07:29:05.872Z,98277.09
2022-09-27T07:30:09.789Z,98274.84
2022-09-27T07:31:12.728Z,98273.38
2022-09-27T07:32:16.214Z,98279.72
2022-09-27T07:33:18.410Z,98265.56
2022-09-27T07:34:20.756Z,98277.13
2022-09-27T07:35:23.175Z,98277.63
2022-09-27T07:36:25.336Z,98274.53
2022-09-27T07:37:27.558Z,98273.06
2022-09-27T07:38:30.395Z,98282.69
2022-09-27T07:39:32.684Z,98277.97
2022-09-27T07:40:38.079Z,98282.88
2022-09-27T07:41:43.556Z,98281.41
2022-09-27T07:42:47.304Z,98284.66
2022-09-27T07:43:50.064Z,98279.63
2022-09-27T07:44:53.730Z,98280.09
2022-09-27T07:46:22.262Z,98277.00
2022-09-27T07:47:42.866Z,98278.31
2022-09-27T07:49:10.942Z,98278.47
2022-09-27T07:50:30.275Z,98284.00
2022-09-27T07:51:36.723Z,98276.19
2022-09-27T07:52:57.888Z,98281.06
2022-09-27T07:54:20.071Z,98283.03
2022-09-27T07:55:35.022Z,98284.66
2022-09-27T07:56:49.123Z,98282.69
2022-09-27T07:58:02.553Z,98287.09
2022-09-27T07:59:04.790Z,98286.78
2022-09-27T08:00:12.686Z,98284.81
2022-09-27T08:01:35.384Z,98283.69
2022-09-27T08:02:37.730Z,98276.19
2022-09-27T08:03:40.546Z,98285.81
2022-09-27T08:04:44.099Z,98274.72
2022-09-27T08:05:47.753Z,98279.94
2022-09-27T08:06:50.316Z,98285.13
2022-09-27T08:07:56.869Z,98281.25
2022-09-27T08:09:00.784Z,98274.56
2022-09-27T08:10:04.606Z,98278.63
2022-09-27T08:11:14.752Z,98276.66
2022-09-27T08:12:17.361Z,98283.84
2022-09-27T08:13:20.655Z,98274.69
2022-09-27T08:14:24.996Z,98282.72
2022-09-27T08:15:28.726Z,98281.53
2022-09-27T08:16:35.096Z,98284.00
2022-09-27T08:17:52.266Z,98291.16
2022-09-27T08:19:05.257Z,98288.06
2022-09-27T08:20:25.817Z,98284.13
2022-09-27T08:21:43.183Z,98285.44
2022-09-27T08:22:58.031Z,98275.50
2022-09-27T08:24:04.824Z,98285.09
2022-09-27T08:25:14.446Z,98280.41
2022-09-27T08:26:36.830Z,98283.63
2022-09-27T08:27:56.033Z,98286.41
2022-09-27T08:29:18.490Z,98276.63
2022-09-27T08:30:27.860Z,98281.03
2022-09-27T08:31:30.133Z,98287.88
2022-09-27T08:32:33.248Z,98291.16
2022-09-27T08:33:50.991Z,98289.69
2022-09-27T08:34:53.215Z,98297.66
2022-09-27T08:35:57.670Z,98289.81
2022-09-27T08:37:00.318Z,98290.31
2022-09-27T08:38:04.279Z,98292.41
2022-09-27T08:39:06.452Z,98295.69
2022-09-27T08:40:18.129Z,98293.41
2022-09-27T08:41:39.981Z,98291.09
2022-09-27T08:42:59.267Z,98282.94
2022-09-27T08:44:52.543Z,98289.78
2022-09-27T08:46:13.665Z,98287.63
2022-09-27T08:47:27.165Z,98291.38
2022-09-27T08:48:32.501Z,98293.50
2022-09-27T08:49:47.596Z,98293.66
2022-09-27T08:50:49.801Z,98288.28
2022-09-27T08:51:54.065Z,98289.56
2022-09-27T08:53:14.194Z,98288.59
2022-09-27T08:54:24.889Z,98294.28
2022-09-27T08:55:37.416Z,98292.81
2022-09-27T08:56:45.458Z,98291.00
2022-09-27T08:57:52.748Z,98291.94
2022-09-27T08:59:05.609Z,98292.91
2022-09-27T09:00:12.311Z,98291.44
2022-09-27T09:01:19.219Z,98288.81
2022-09-27T09:02:28.249Z,98293.69
2022-09-27T09:03:52.610Z,98296.25
2022-09-27T09:05:00.588Z,98297.56
2022-09-27T09:06:08.829Z,98307.19
2022-09-27T09:07:32.560Z,98309.78
2022-09-27T09:09:11.709Z,98312.19
2022-09-27T09:10:58.914Z,98305.50
2022-09-27T09:12:28.736Z,98299.28
2022-09-27T09:13:39.914Z,98305.50
2022-09-27T09:14:52.446Z,98307.16
2022-09-27T09:16:03.686Z,98304.38
2022-09-27T09:17:26.455Z,98300.78
2022-09-27T09:19:19.749Z,98298.81
2022-09-27T09:20:54.899Z,98296.03
2022-09-27T09:22:12.252Z,98297.00
2022-09-27T09:23:36.834Z,98295.50
2022-09-27T09:25:15.563Z,98288.63
2022-09-27T09:26:21.509Z,98290.84
2022-09-27T09:27:56.967Z,98279.22
2022-09-27T09:29:22.002Z,98280.78
2022-09-27T09:30:33.122Z,98284.31
2022-09-27T09:31:58.209Z,98289.81
2022-09-27T09:33:25.516Z,98290.56
2022-09-27T09:34:49.476Z,98284.56
2022-09-27T09:36:00.409Z,98299.91
2022-09-27T09:37:16.751Z,98297.41
2022-09-27T09:38:25.891Z,98291.28
2022-09-27T09:39:39.612Z,98303.47
2022-09-27T09:40:51.517Z,98303.72
2022-09-27T09:42:04.579Z,98298.06
2022-09-27T09:43:15.861Z,98291.59
2022-09-27T09:44:25.833Z,98295.91
2022-09-27T09:45:34.651Z,98295.84
2022-09-27T09:46:44.915Z,98287.75
2022-09-27T09:48:00.579Z,98282.88
2022-09-27T09:49:29.662Z,98285.69
2022-09-27T09:50:40.260Z,98280.94
2022-09-27T09:51:47.843Z,98288.69
2022-09-27T09:53:13.859Z,98283.47
2022-09-27T09:54:33.597Z,98279.41
2022-09-27T09:55:37.067Z,98280.88
2022-09-27T09:57:12.913Z,98280.75
2022-09-27T09:58:27.156Z,98275.53
2022-09-27T09:59:41.265Z,98279.34
2022-09-27T10:00:45.634Z,98285.16
2022-09-27T10:01:48.568Z,98281.75
2022-09-27T10:02:54.146Z,98284.75
2022-09-27T10:03:57.301Z,98282.97
2022-09-27T10:05:06.837Z,98276.78
2022-09-27T10:06:12.152Z,98274.69
2022-09-27T10:07:16.330Z,98279.28
2022-09-27T10:08:24.326Z,98279.13
2022-09-27T10:09:41.189Z,98281.72
2022-09-27T10:11:21.535Z,98279.97
2022-09-27T10:12:31.737Z,98276.91
2022-09-27T10:13:36.487Z,98274.69
2022-09-27T10:14:40.999Z,98281.19
2022-09-27T10:15:48.710Z,98286.41
2022-09-27T10:16:57.776Z,98282.88
2022-09-27T10:18:00.481Z,98294.50
2022-09-27T10:19:05.350Z,98292.16
2022-09-27T10:20:08.304Z,98285.75
2022-09-27T10:21:15.733Z,98293.69
2022-09-27T10:22:36.967Z,98299.63
2022-09-27T10:24:04.601Z,98298.34
2022-09-27T10:25:55.182Z,98299.44
2022-09-27T10:27:15.946Z,98300.50
2022-09-27T10:28:33.130Z,98326.81
2022-09-27T10:29:39.453Z,98320.69
2022-09-27T10:30:56.387Z,98333.22
2022-09-27T10:32:03.482Z,98328.38
2022-09-27T10:33:19.885Z,98319.44
2022-09-27T10:34:33.524Z,98339.13
2022-09-27T10:35:45.343Z,98331.00
2022-09-27T10:37:18.968Z,98333.59
2022-09-27T10:38:40.336Z,98340.94
2022-09-27T10:39:53.727Z,98337.13
2022-09-27T10:41:15.752Z,98340.19
2022-09-27T10:42:31.891Z,98347.03
2022-09-27T10:43:35.871Z,98349.59
2022-09-27T10:45:28.096Z,98345.69
2022-09-27T10:46:34.708Z,98341.88
2022-09-27T10:47:52.918Z,98346.38
2022-09-27T10:49:34.251Z,98354.03
2022-09-27T10:50:58.944Z,98350.66
2022-09-27T10:52:22.362Z,98345.56
2022-09-27T10:53:27.162Z,98352.88
2022-09-27T10:54:38.041Z,98364.25
2022-09-27T10:55:42.236Z,98363.66
2022-09-27T10:56:44.546Z,98363.53
2022-09-27T10:57:54.650Z,98357.38
2022-09-27T10:59:00.034Z,98349.09
2022-09-27T11:00:24.072Z,98360.00
2022-09-27T11:01:38.641Z,98355.81
2022-09-27T11:02:58.087Z,98361.25
2022-09-27T11:04:03.138Z,98358.81
2022-09-27T11:05:15.774Z,98366.72
2022-09-27T11:06:22.982Z,98363.78
2022-09-27T11:07:25.292Z,98365.28
2022-09-27T11:08:35.473Z,98352.84
2022-09-27T11:09:48.609Z,98362.13
2022-09-27T11:11:06.673Z,98363.59
2022-09-27T11:12:13.808Z,98365.56
2022-09-27T11:13:20.340Z,98368.34
2022-09-27T11:14:29.062Z,98376.25
2022-09-27T11:15:33.730Z,98366.59
2022-09-27T11:16:46.004Z,98374.94
2022-09-27T11:17:54.599Z,98372.47
2022-09-27T11:19:34.256Z,98377.09
2022-09-27T11:20:47.424Z,98373.53
2022-09-27T11:22:19.980Z,98368.66
2022-09-27T11:23:39.730Z,98374.53
2022-09-27T11:24:56.909Z,98375.22
2022-09-27T11:26:44.874Z,98379.38
2022-09-27T11:27:59.643Z,98379.22
2022-09-27T11:29:35.804Z,98376.34
2022-09-27T11:31:19.602Z,98371.63
2022-09-27T11:32:43.457Z,98383.44
2022-09-27T11:34:07.576Z,98383.31
2022-09-27T11:35:45.196Z,98381.56
2022-09-27T11:37:11.840Z,98387.31
2022-09-27T11:38:53.083Z,98387.50
2022-09-27T11:40:11.218Z,98380.84
2022-09-27T11:41:41.243Z,98387.91
2022-09-27T11:43:17.075Z,98393.31
2022-09-27T11:44:32.557Z,98394.63
2022-09-27T11:46:10.787Z,98386.16
2022-09-27T11:47:50.965Z,98386.34
2022-09-27T11:49:13.801Z,98382.13
2022-09-27T11:50:25.866Z,98385.56
2022-09-27T11:51:38.597Z,98390.66
2022-09-27T11:52:43.420Z,98386.59
2022-09-27T11:54:25.913Z,98392.81
2022-09-27T11:55:39.946Z,98389.06
2022-09-27T11:56:56.115Z,98395.28
2022-09-27T11:58:08.855Z,98395.63
2022-09-27T11:59:28.328Z,98394.00
2022-09-27T12:00:51.001Z,98394.34
2022-09-27T12:02:16.798Z,98393.50
2022-09-27T12:03:40.041Z,98387.94
2022-09-27T12:05:19.183Z,98383.56
2022-09-27T12:06:51.140Z,98392.00
2022-09-27T12:08:30.195Z,98389.72
2022-09-27T12:09:39.208Z,98391.72
2022-09-27T12:10:47.079Z,98389.41
2022-09-27T12:11:57.426Z,98395.44
2022-09-27T12:13:00.541Z,98391.53
2022-09-27T12:14:11.564Z,98386.44
2022-09-27T12:15:19.924Z,98389.69
2022-09-27T12:16:26.326Z,98395.72
2022-09-27T12:17:36.263Z,98386.72
2022-09-27T12:18:41.100Z,98396.66
2022-09-27T12:20:11.323Z,98397.16
2022-09-27T12:21:21.451Z,98396.47
2022-09-27T12:22:57.491Z,98397.78
2022-09-27T12:24:06.698Z,98399.91
2022-09-27T12:25:21.009Z,98397.94
2022-09-27T12:26:43.429Z,98408.41
2022-09-27T12:28:02.883Z,98397.75
2022-09-27T12:29:39.723Z,98402.94
2022-09-27T12:30:48.741Z,98391.50
2022-09-27T12:32:02.164Z,98401.47
2022-09-27T12:33:18.627Z,98401.16
2022-09-27T12:34:46.398Z,98402.78
2022-09-27T12:35:54.306Z,98404.44
2022-09-27T12:37:02.961Z,98401.31
2022-09-27T12:38:17.497Z,98400.97
2022-09-27T12:39:25.806Z,98399.47
2022-09-27T12:40:39.010Z,98401.13
2022-09-27T12:41:54.736Z,98403.25
2022-09-27T12:43:12.269Z,98402.91
2022-09-27T12:44:38.697Z,98397.47
2022-09-27T12:45:43.738Z,98385.69
2022-09-27T12:46:52.686Z,98397.25
2022-09-27T12:48:23.462Z,98393.81
2022-09-27T12:49:57.612Z,98395.91
2022-09-27T12:51:15.856Z,98393.75
2022-09-27T12:52:25.695Z,98395.38
2022-09-27T12:53:47.529Z,98396.34
2022-09-27T12:55:27.360Z,98402.03
2022-09-27T12:56:42.147Z,98400.19
2022-09-27T12:58:07.988Z,98398.22
2022-09-27T12:59:28.631Z,98396.25
2022-09-27T13:00:41.902Z,98393.97
2022-09-27T13:02:19.224Z,98405.53
2022-09-27T13:03:50.317Z,98396.53
2022-09-27T13:04:59.087Z,98393.41
2022-09-27T13:06:26.382Z,98395.84
2022-09-27T13:08:00.511Z,98401.41
2022-09-27T13:09:40.144Z,98403.03
2022-09-27T13:10:49.289Z,98402.69
2022-09-27T13:12:14.512Z,98393.56
2022-09-27T13:13:21.587Z,98399.91
2022-09-27T13:14:27.550Z,98386.34
2022-09-27T13:15:33.602Z,98396.19
2022-09-27T13:16:46.564Z,98392.13
2022-09-27T13:17:53.405Z,98390.50
2022-09-27T13:19:26.499Z,98403.94
2022-09-27T13:20:35.392Z,98401.16
2022-09-27T13:21:51.768Z,98414.56
2022-09-27T13:23:29.858Z,98396.59
2022-09-27T13:24:51.517Z,98406.09
2022-09-27T13:26:22.793Z,98412.00
2022-09-27T13:27:33.052Z,98405.63
2022-09-27T13:28:49.664Z,98414.31
2022-09-27T13:30:43.686Z,98406.63
2022-09-27T13:31:53.574Z,98408.97
2022-09-27T13:33:09.629Z,98415.66
2022-09-27T13:34:41.961Z,98421.06
2022-09-27T13:36:16.563Z,98414.22
2022-09-27T13:37:46.863Z,98407.03
2022-09-27T13:39:06.247Z,98420.47
2022-09-27T13:40:35.033Z,98413.28
2022-09-27T13:42:07.326Z,98412.78
2022-09-27T13:43:35.821Z,98417.53
2022-09-27T13:45:03.776Z,98427.84
2022-09-27T13:46:17.616Z,98427.38
2022-09-27T13:47:40.129Z,98422.50
2022-09-27T13:49:05.012Z,98436.72
2022-09-27T13:50:56.762Z,98438.34
2022-09-27T13:52:04.049Z,98437.53
2022-09-27T13:53:30.709Z,98439.03
2022-09-27T13:54:50.508Z,98443.75
2022-09-27T13:55:53.993Z,98440.50
2022-09-27T13:57:09.808Z,98447.22
2022-09-27T13:58:43.247Z,98440.84
2022-09-27T14:00:09.229Z,98439.06
2022-09-27T14:01:33.270Z,98439.56
2022-09-27T14:03:02.877Z,98447.91
2022-09-27T14:04:17.539Z,98441.03
2022-09-27T14:05:26.161Z,98439.41
2022-09-27T14:06:36.234Z,98441.34
2022-09-27T14:07:42.533Z,98444.97
2022-09-27T14:08:52.870Z,98443.34
2022-09-27T14:10:01.227Z,98445.78
2022-09-27T14:11:16.996Z,98443.00
2022-09-27T14:12:28.238Z,98444.13
2022-09-27T14:13:32.663Z,98445.63
2022-09-27T14:14:43.053Z,98457.91
2022-09-27T14:15:46.600Z,98463.47
2022-09-27T14:16:49.385Z,98457.91
2022-09-27T14:17:53.476Z,98461.78
2022-09-27T14:19:00.718Z,98468.50
2022-09-27T14:20:31.658Z,98473.25
2022-09-27T14:21:37.847Z,98476.84
2022-09-27T14:22:54.678Z,98475.19
2022-09-27T14:24:24.556Z,98482.72
2022-09-27T14:25:28.004Z,98487.50